world map with CAG marked

CAG - Airport

This information may not be accurate or current and is not valid for navigation or flight planning. No warranty of fitness for any purpose is made or implied.

flag of Italy

Donate via PayPal

Additional information is available on the NEW Great Circle Mapper

Location
City:  Cagliari, Sardinia, Italy
Name:Elmas
ICAO / IATA:LIEE / CAG

Details
Type:Airport (Aerodrome, Airfield)
Use:Public/Civil, Military
Latitude:39°15'05"N (39.251469)
Longitude:9°03'15"E (9.054283)
Datum:WGS 1984
Elevation:13 ft (4 m)
Runways:1
Longest:9196 × 148 ft (2803 × 45 m)

Time
Timezone:UTC+1 (DST+2)
Local Time:

Weather
METAR:LIEE  191150Z 13009KT 9999 FEW030 21/13 Q1006
TAF:LIEE  191100Z 1912/2012 21012KT 9999 SCT030= TAF LIEO 191100Z 1912/2012 25016KT 9999 SCT030 BECMG 1917/1920 VRB06KT

Related Locations
Nearby:
Farthest:CHT: 12010 mi / 19328 km
Waitangi [Tuuta], Chatham Islands, NZ

Find:

   beyond  
but within

Other Information
Maps:
Links:
Sources:

  

Airport Diagram

Airport diagram for CAG

Airport diagram (OBSOLETE) from NGA

 


Great Circle Mapper   Great Circle Mapper
Great Circle Mapper FAQ   Great Circle Mapper FAQ
  Karl's Home Page
KLSē   KLSē Home
   GC on Facebook
Airlines of the World   Airlines of the World
Donate via PayPal


Copyright © 2004-2013, Karl L. Swartz. All rights reserved.
All trademarks mentioned herein belong to their respective owners.

Please see credits for attribution and copyright information.

Karl Swartz <karl@kls2.com>
  Powered by FreeBSD
Valid HTML 4.01!
Labeled with ICRA
hCard Microformat
Geo Microformat